sensor_id;sensor_type;location;lat;lon;timestamp;pressure;altitude;pressure_sealevel;temperature;humidity
53316;BME280;39204;53.896;11.432;2023-04-26T05:16:50;101193.25;;;6.57;100.00
53316;BME280;39204;53.896;11.432;2023-04-26T05:18:20;101184.81;;;6.66;100.00
53316;BME280;39204;53.896;11.432;2023-04-26T05:19:50;101196.03;;;6.95;100.00
53316;BME280;39204;53.896;11.432;2023-04-26T05:21:21;101192.31;;;7.02;100.00
53316;BME280;39204;53.896;11.432;2023-04-26T05:22:52;101201.59;;;6.87;100.00
53316;BME280;39204;53.896;11.432;2023-04-26T05:24:22;101204.91;;;6.75;100.00
53316;BME280;39204;53.896;11.432;2023-04-26T05:25:52;101203.63;;;7.36;100.00
53316;BME280;39204;53.896;11.432;2023-04-26T05:27:23;101204.66;;;6.84;100.00
53316;BME280;39204;53.896;11.432;2023-04-26T05:28:53;101209.00;;;6.71;100.00
53316;BME280;39204;53.896;11.432;2023-04-26T05:30:23;101199.47;;;7.09;100.00
53316;BME280;39204;53.896;11.432;2023-04-26T05:31:53;101200.72;;;6.99;100.00
53316;BME280;39204;53.896;11.432;2023-04-26T05:33:24;101205.47;;;6.91;100.00
53316;BME280;39204;53.896;11.432;2023-04-26T05:34:55;101208.94;;;7.43;100.00
53316;BME280;39204;53.896;11.432;2023-04-26T05:36:26;101209.16;;;7.41;100.00
53316;BME280;39204;53.896;11.432;2023-04-26T05:37:57;101209.03;;;7.23;100.00
53316;BME280;39204;53.896;11.432;2023-04-26T05:39:27;101214.72;;;7.33;100.00
53316;BME280;39204;53.896;11.432;2023-04-26T05:40:57;101218.06;;;7.22;100.00
53316;BME280;39204;53.896;11.432;2023-04-26T05:42:28;101208.72;;;7.44;100.00
53316;BME280;39204;53.896;11.432;2023-04-26T05:43:58;101209.69;;;7.88;100.00
53316;BME280;39204;53.896;11.432;2023-04-26T05:45:28;101205.09;;;7.70;100.00
53316;BME280;39204;53.896;11.432;2023-04-26T05:46:58;101213.19;;;7.89;100.00
53316;BME280;39204;53.896;11.432;2023-04-26T05:48:29;101206.56;;;7.98;100.00
53316;BME280;39204;53.896;11.432;2023-04-26T05:49:59;101208.03;;;7.94;100.00
53316;BME280;39204;53.896;11.432;2023-04-26T05:51:29;101212.53;;;7.93;100.00
53316;BME280;39204;53.896;11.432;2023-04-26T05:53:00;101204.44;;;7.43;100.00
53316;BME280;39204;53.896;11.432;2023-04-26T05:54:30;101211.97;;;8.16;100.00
53316;BME280;39204;53.896;11.432;2023-04-26T05:56:00;101205.78;;;8.66;100.00
53316;BME280;39204;53.896;11.432;2023-04-26T05:57:31;101206.63;;;8.16;100.00
53316;BME280;39204;53.896;11.432;2023-04-26T05:59:01;101211.09;;;8.22;100.00
53316;BME280;39204;53.896;11.432;2023-04-26T06:00:32;101210.22;;;8.54;100.00
53316;BME280;39204;53.896;11.432;2023-04-26T06:02:02;101206.72;;;8.03;100.00
53316;BME280;39204;53.896;11.432;2023-04-26T06:03:33;101213.56;;;8.67;100.00
53316;BME280;39204;53.896;11.432;2023-04-26T06:05:04;101212.38;;;8.63;100.00
53316;BME280;39204;53.896;11.432;2023-04-26T06:06:35;101218.34;;;8.65;100.00
53316;BME280;39204;53.896;11.432;2023-04-26T06:08:06;101219.59;;;8.63;100.00
53316;BME280;39204;53.896;11.432;2023-04-26T06:09:36;101218.16;;;8.10;100.00
53316;BME280;39204;53.896;11.432;2023-04-26T06:11:07;101222.03;;;8.46;100.00
53316;BME280;39204;53.896;11.432;2023-04-26T06:12:37;101212.34;;;8.45;100.00
53316;BME280;39204;53.896;11.432;2023-04-26T06:14:08;101229.78;;;7.97;100.00
53316;BME280;39204;53.896;11.432;2023-04-26T06:15:38;101215.50;;;8.42;100.00
53316;BME280;39204;53.896;11.432;2023-04-26T06:17:08;101222.47;;;8.36;100.00
53316;BME280;39204;53.896;11.432;2023-04-26T06:18:39;101231.97;;;7.75;100.00
53316;BME280;39204;53.896;11.432;2023-04-26T06:20:09;101223.94;;;8.32;100.00
53316;BME280;39204;53.896;11.432;2023-04-26T06:21:39;101225.56;;;8.08;100.00
53316;BME280;39204;53.896;11.432;2023-04-26T06:23:10;101224.44;;;8.22;100.00
53316;BME280;39204;53.896;11.432;2023-04-26T06:24:40;101219.91;;;8.73;100.00
53316;BME280;39204;53.896;11.432;2023-04-26T06:26:11;101220.03;;;8.60;100.00
53316;BME280;39204;53.896;11.432;2023-04-26T06:27:41;101214.53;;;8.55;100.00
53316;BME280;39204;53.896;11.432;2023-04-26T06:29:11;101207.63;;;8.47;100.00
53316;BME280;39204;53.896;11.432;2023-04-26T06:30:42;101221.47;;;8.37;100.00
53316;BME280;39204;53.896;11.432;2023-04-26T06:32:12;101217.50;;;8.15;100.00
53316;BME280;39204;53.896;11.432;2023-04-26T06:33:42;101219.69;;;8.24;100.00
53316;BME280;39204;53.896;11.432;2023-04-26T06:35:12;101214.41;;;8.18;100.00
53316;BME280;39204;53.896;11.432;2023-04-26T06:36:43;101220.09;;;8.28;100.00
53316;BME280;39204;53.896;11.432;2023-04-26T06:38:13;101215.00;;;8.70;100.00
53316;BME280;39204;53.896;11.432;2023-04-26T06:39:43;101230.47;;;8.86;100.00
53316;BME280;39204;53.896;11.432;2023-04-26T06:41:13;101218.53;;;8.64;100.00
53316;BME280;39204;53.896;11.432;2023-04-26T06:42:44;101225.91;;;8.68;100.00
53316;BME280;39204;53.896;11.432;2023-04-26T06:44:14;101225.47;;;8.71;100.00
53316;BME280;39204;53.896;11.432;2023-04-26T06:45:45;101233.00;;;9.00;100.00
53316;BME280;39204;53.896;11.432;2023-04-26T06:47:15;101228.88;;;9.15;100.00
53316;BME280;39204;53.896;11.432;2023-04-26T06:48:45;101236.31;;;9.50;100.00
53316;BME280;39204;53.896;11.432;2023-04-26T06:50:16;101232.75;;;9.19;100.00
53316;BME280;39204;53.896;11.432;2023-04-26T06:51:46;101232.91;;;9.06;100.00
53316;BME280;39204;53.896;11.432;2023-04-26T06:53:16;101235.09;;;9.16;100.00
53316;BME280;39204;53.896;11.432;2023-04-26T06:54:47;101222.22;;;9.55;100.00
53316;BME280;39204;53.896;11.432;2023-04-26T06:56:17;101232.28;;;9.41;100.00
53316;BME280;39204;53.896;11.432;2023-04-26T06:57:48;101226.44;;;8.95;100.00
53316;BME280;39204;53.896;11.432;2023-04-26T06:59:19;101231.94;;;9.67;100.00
53316;BME280;39204;53.896;11.432;2023-04-26T07:00:49;101231.19;;;9.30;100.00
53316;BME280;39204;53.896;11.432;2023-04-26T07:02:20;101231.25;;;9.42;100.00
53316;BME280;39204;53.896;11.432;2023-04-26T07:03:52;101231.34;;;9.17;100.00
53316;BME280;39204;53.896;11.432;2023-04-26T07:05:22;101232.44;;;9.46;100.00
53316;BME280;39204;53.896;11.432;2023-04-26T07:06:53;101233.38;;;9.52;100.00
53316;BME280;39204;53.896;11.432;2023-04-26T07:08:23;101232.75;;;9.19;100.00
53316;BME280;39204;53.896;11.432;2023-04-26T07:09:53;101239.47;;;9.59;100.00
53316;BME280;39204;53.896;11.432;2023-04-26T07:11:23;101229.88;;;9.21;100.00
53316;BME280;39204;53.896;11.432;2023-04-26T07:12:54;101234.81;;;9.36;100.00
53316;BME280;39204;53.896;11.432;2023-04-26T07:14:24;101220.72;;;10.01;100.00
53316;BME280;39204;53.896;11.432;2023-04-26T07:15:55;101232.19;;;10.19;100.00
53316;BME280;39204;53.896;11.432;2023-04-26T07:17:26;101227.25;;;10.05;100.00
53316;BME280;39204;53.896;11.432;2023-04-26T07:18:56;101227.00;;;9.83;100.00
53316;BME280;39204;53.896;11.432;2023-04-26T07:20:30;101237.94;;;9.33;100.00
53316;BME280;39204;53.896;11.432;2023-04-26T07:22:00;101230.81;;;9.27;100.00
53316;BME280;39204;53.896;11.432;2023-04-26T07:23:30;101235.69;;;9.48;100.00
53316;BME280;39204;53.896;11.432;2023-04-26T07:25:01;101235.56;;;9.43;100.00
53316;BME280;39204;53.896;11.432;2023-04-26T07:26:31;101232.91;;;9.25;100.00
53316;BME280;39204;53.896;11.432;2023-04-26T07:28:01;101239.84;;;10.04;100.00
53316;BME280;39204;53.896;11.432;2023-04-26T07:29:32;101242.97;;;9.59;100.00
53316;BME280;39204;53.896;11.432;2023-04-26T07:31:02;101236.16;;;9.08;100.00
53316;BME280;39204;53.896;11.432;2023-04-26T07:32:33;101231.66;;;8.47;100.00
53316;BME280;39204;53.896;11.432;2023-04-26T07:34:04;101239.56;;;8.60;100.00
53316;BME280;39204;53.896;11.432;2023-04-26T07:35:34;101247.41;;;8.99;100.00
53316;BME280;39204;53.896;11.432;2023-04-26T07:37:05;101248.63;;;9.51;99.34
53316;BME280;39204;53.896;11.432;2023-04-26T07:38:36;101244.06;;;9.03;98.15
53316;BME280;39204;53.896;11.432;2023-04-26T07:40:06;101235.91;;;8.55;98.88
53316;BME280;39204;53.896;11.432;2023-04-26T07:41:39;101246.19;;;8.76;100.00
53316;BME280;39204;53.896;11.432;2023-04-26T07:43:09;101247.41;;;9.17;99.02
53316;BME280;39204;53.896;11.432;2023-04-26T07:44:40;101248.38;;;9.53;96.73
53316;BME280;39204;53.896;11.432;2023-04-26T07:46:10;101242.63;;;10.51;96.23
53316;BME280;39204;53.896;11.432;2023-04-26T07:47:40;101239.88;;;11.22;90.74
53316;BME280;39204;53.896;11.432;2023-04-26T07:49:10;101244.38;;;10.69;90.61
53316;BME280;39204;53.896;11.432;2023-04-26T07:50:41;101253.63;;;9.78;91.92
53316;BME280;39204;53.896;11.432;2023-04-26T07:52:11;101253.44;;;9.31;92.20
53316;BME280;39204;53.896;11.432;2023-04-26T07:53:41;101252.44;;;8.88;92.06
53316;BME280;39204;53.896;11.432;2023-04-26T07:55:12;101250.22;;;9.40;91.40
53316;BME280;39204;53.896;11.432;2023-04-26T07:56:42;101242.59;;;9.86;90.69
53316;BME280;39204;53.896;11.432;2023-04-26T07:58:12;101261.41;;;9.98;91.57
53316;BME280;39204;53.896;11.432;2023-04-26T07:59:43;101251.09;;;10.25;89.90
53316;BME280;39204;53.896;11.432;2023-04-26T08:01:13;101258.28;;;9.52;85.88
53316;BME280;39204;53.896;11.432;2023-04-26T08:02:44;101263.22;;;9.18;86.22
53316;BME280;39204;53.896;11.432;2023-04-26T08:04:29;101256.78;;;9.56;85.84
53316;BME280;39204;53.896;11.432;2023-04-26T08:06:01;101273.69;;;9.57;89.07
53316;BME280;39204;53.896;11.432;2023-04-26T08:07:32;101270.75;;;10.18;87.33
53316;BME280;39204;53.896;11.432;2023-04-26T08:09:02;101269.88;;;9.94;86.17
53316;BME280;39204;53.896;11.432;2023-04-26T08:10:34;101270.03;;;10.77;85.07
53316;BME280;39204;53.896;11.432;2023-04-26T08:12:04;101271.44;;;10.79;82.26
53316;BME280;39204;53.896;11.432;2023-04-26T08:13:35;101263.66;;;10.12;82.69
53316;BME280;39204;53.896;11.432;2023-04-26T08:15:05;101263.66;;;10.12;82.48
53316;BME280;39204;53.896;11.432;2023-04-26T08:16:36;101265.59;;;10.71;82.47
53316;BME280;39204;53.896;11.432;2023-04-26T08:18:06;101266.84;;;11.03;81.58
53316;BME280;39204;53.896;11.432;2023-04-26T08:19:37;101266.81;;;11.38;80.54
53316;BME280;39204;53.896;11.432;2023-04-26T08:21:07;101261.16;;;10.88;83.81
53316;BME280;39204;53.896;11.432;2023-04-26T08:22:38;101265.38;;;10.07;84.03
53316;BME280;39204;53.896;11.432;2023-04-26T08:24:08;101265.78;;;10.34;84.85
53316;BME280;39204;53.896;11.432;2023-04-26T08:25:38;101271.91;;;9.81;82.86
53316;BME280;39204;53.896;11.432;2023-04-26T08:27:08;101278.28;;;9.68;79.61
53316;BME280;39204;53.896;11.432;2023-04-26T08:28:39;101275.44;;;9.93;79.57
53316;BME280;39204;53.896;11.432;2023-04-26T08:30:10;101273.63;;;10.35;78.18
53316;BME280;39204;53.896;11.432;2023-04-26T08:31:41;101272.38;;;10.61;79.10
53316;BME280;39204;53.896;11.432;2023-04-26T08:33:11;101286.63;;;11.78;78.74
53316;BME280;39204;53.896;11.432;2023-04-26T08:34:42;101288.28;;;11.67;72.99
53316;BME280;39204;53.896;11.432;2023-04-26T08:36:12;101285.94;;;11.42;73.31
53316;BME280;39204;53.896;11.432;2023-04-26T08:37:43;101275.06;;;11.37;73.95
53316;BME280;39204;53.896;11.432;2023-04-26T08:39:13;101272.56;;;11.07;72.06
53316;BME280;39204;53.896;11.432;2023-04-26T08:40:45;101282.75;;;11.57;71.12
53316;BME280;39204;53.896;11.432;2023-04-26T08:42:16;101274.69;;;10.93;74.01
53316;BME280;39204;53.896;11.432;2023-04-26T08:43:47;101280.38;;;11.60;74.98
53316;BME280;39204;53.896;11.432;2023-04-26T08:45:19;101285.25;;;11.35;72.27
53316;BME280;39204;53.896;11.432;2023-04-26T08:48:33;101286.19;;;11.29;74.31
53316;BME280;39204;53.896;11.432;2023-04-26T08:50:05;101287.84;;;11.18;74.87
53316;BME280;39204;53.896;11.432;2023-04-26T08:51:37;101283.66;;;10.63;73.16
53316;BME280;39204;53.896;11.432;2023-04-26T08:53:08;101290.56;;;10.17;73.36
53316;BME280;39204;53.896;11.432;2023-04-26T08:54:40;101295.03;;;9.75;75.11
53316;BME280;39204;53.896;11.432;2023-04-26T08:56:10;101289.75;;;9.57;75.13
53316;BME280;39204;53.896;11.432;2023-04-26T08:57:45;101303.19;;;9.68;73.64
53316;BME280;39204;53.896;11.432;2023-04-26T08:59:16;101293.13;;;9.64;72.61
53316;BME280;39204;53.896;11.432;2023-04-26T09:00:46;101293.03;;;9.40;73.57
53316;BME280;39204;53.896;11.432;2023-04-26T09:02:20;101292.19;;;9.58;74.35
53316;BME280;39204;53.896;11.432;2023-04-26T09:03:51;101287.25;;;10.04;75.29
53316;BME280;39204;53.896;11.432;2023-04-26T09:05:21;101290.91;;;10.86;75.62
53316;BME280;39204;53.896;11.432;2023-04-26T09:07:00;101298.66;;;10.41;70.42
53316;BME280;39204;53.896;11.432;2023-04-26T09:08:32;101299.78;;;10.22;67.77
53316;BME280;39204;53.896;11.432;2023-04-26T09:10:06;101290.41;;;10.31;66.04
53316;BME280;39204;53.896;11.432;2023-04-26T09:11:53;101286.47;;;10.15;66.56
53316;BME280;39204;53.896;11.432;2023-04-26T09:13:27;101296.13;;;10.46;65.37
53316;BME280;39204;53.896;11.432;2023-04-26T09:14:59;101286.31;;;10.40;67.03
53316;BME280;39204;53.896;11.432;2023-04-26T09:16:34;101289.84;;;11.11;68.17
53316;BME280;39204;53.896;11.432;2023-04-26T09:18:15;101285.66;;;10.92;67.53
53316;BME280;39204;53.896;11.432;2023-04-26T09:19:46;101292.06;;;11.02;67.11
53316;BME280;39204;53.896;11.432;2023-04-26T09:21:16;101290.00;;;11.85;68.29
53316;BME280;39204;53.896;11.432;2023-04-26T09:22:53;101294.78;;;12.11;65.05
53316;BME280;39204;53.896;11.432;2023-04-26T09:24:46;101291.63;;;11.46;65.93
53316;BME280;39204;53.896;11.432;2023-04-26T09:26:18;101296.84;;;11.52;65.43
53316;BME280;39204;53.896;11.432;2023-04-26T09:27:49;101297.25;;;11.84;65.20
53316;BME280;39204;53.896;11.432;2023-04-26T09:29:20;101296.19;;;11.45;65.02
53316;BME280;39204;53.896;11.432;2023-04-26T09:30:50;101290.09;;;10.98;65.32
53316;BME280;39204;53.896;11.432;2023-04-26T09:32:21;101294.28;;;10.82;65.71
53316;BME280;39204;53.896;11.432;2023-04-26T09:33:58;101295.78;;;10.89;66.89
53316;BME280;39204;53.896;11.432;2023-04-26T09:35:34;101298.59;;;11.06;65.40
53316;BME280;39204;53.896;11.432;2023-04-26T09:37:04;101300.75;;;11.85;66.45
53316;BME280;39204;53.896;11.432;2023-04-26T09:38:41;101288.41;;;11.32;61.90
53316;BME280;39204;53.896;11.432;2023-04-26T09:40:18;101295.41;;;11.33;61.33
53316;BME280;39204;53.896;11.432;2023-04-26T09:41:49;101296.47;;;11.72;63.04
53316;BME280;39204;53.896;11.432;2023-04-26T09:43:20;101305.25;;;12.25;61.01
53316;BME280;39204;53.896;11.432;2023-04-26T09:44:51;101307.78;;;11.22;61.30
53316;BME280;39204;53.896;11.432;2023-04-26T09:46:23;101308.06;;;11.09;61.50
53316;BME280;39204;53.896;11.432;2023-04-26T09:47:54;101309.63;;;11.33;61.45
53316;BME280;39204;53.896;11.432;2023-04-26T09:49:25;101307.06;;;11.27;60.33
53316;BME280;39204;53.896;11.432;2023-04-26T09:51:08;101307.94;;;11.96;58.45
53316;BME280;39204;53.896;11.432;2023-04-26T09:52:42;101308.75;;;12.59;58.53
53316;BME280;39204;53.896;11.432;2023-04-26T09:54:13;101305.84;;;11.98;58.64
53316;BME280;39204;53.896;11.432;2023-04-26T09:55:43;101299.16;;;12.46;58.39
53316;BME280;39204;53.896;11.432;2023-04-26T09:57:15;101313.72;;;12.33;59.03
53316;BME280;39204;53.896;11.432;2023-04-26T10:00:16;101311.25;;;12.15;60.23
53316;BME280;39204;53.896;11.432;2023-04-26T10:01:47;101305.56;;;11.71;59.39
53316;BME280;39204;53.896;11.432;2023-04-26T10:03:18;101300.78;;;11.21;60.79
53316;BME280;39204;53.896;11.432;2023-04-26T10:04:52;101308.38;;;12.05;61.25
53316;BME280;39204;53.896;11.432;2023-04-26T10:06:23;101304.22;;;11.45;60.33
53316;BME280;39204;53.896;11.432;2023-04-26T10:07:54;101309.50;;;11.92;62.29
53316;BME280;39204;53.896;11.432;2023-04-26T10:09:25;101305.16;;;11.51;60.06
53316;BME280;39204;53.896;11.432;2023-04-26T10:10:56;101304.84;;;11.88;60.76
53316;BME280;39204;53.896;11.432;2023-04-26T10:12:27;101317.97;;;11.60;60.10
53316;BME280;39204;53.896;11.432;2023-04-26T10:13:58;101306.22;;;11.38;58.26
53316;BME280;39204;53.896;11.432;2023-04-26T10:15:28;101316.59;;;11.58;58.77
53316;BME280;39204;53.896;11.432;2023-04-26T10:17:00;101298.09;;;11.33;57.77
53316;BME280;39204;53.896;11.432;2023-04-26T10:18:32;101307.22;;;11.72;57.98
53316;BME280;39204;53.896;11.432;2023-04-26T10:20:06;101306.38;;;12.29;57.95
53316;BME280;39204;53.896;11.432;2023-04-26T10:21:39;101310.16;;;11.99;58.10
53316;BME280;39204;53.896;11.432;2023-04-26T10:23:17;101301.38;;;12.04;58.53
53316;BME280;39204;53.896;11.432;2023-04-26T10:24:50;101299.16;;;11.72;58.99
53316;BME280;39204;53.896;11.432;2023-04-26T10:26:50;101319.84;;;11.60;59.24
53316;BME280;39204;53.896;11.432;2023-04-26T10:30:20;101315.16;;;10.68;61.21
53316;BME280;39204;53.896;11.432;2023-04-26T10:33:31;101298.81;;;10.58;66.73
53316;BME280;39204;53.896;11.432;2023-04-26T10:35:11;101303.94;;;11.18;66.80
53316;BME280;39204;53.896;11.432;2023-04-26T10:37:08;101313.44;;;11.61;64.84
53316;BME280;39204;53.896;11.432;2023-04-26T10:38:41;101309.41;;;12.32;62.05
53316;BME280;39204;53.896;11.432;2023-04-26T10:40:32;101307.69;;;12.77;61.59
53316;BME280;39204;53.896;11.432;2023-04-26T10:42:24;101308.41;;;12.22;58.68
53316;BME280;39204;53.896;11.432;2023-04-26T10:43:57;101298.41;;;11.89;57.20
53316;BME280;39204;53.896;11.432;2023-04-26T10:45:28;101305.38;;;11.61;58.78
53316;BME280;39204;53.896;11.432;2023-04-26T10:46:59;101297.06;;;11.62;60.29
53316;BME280;39204;53.896;11.432;2023-04-26T10:48:30;101295.31;;;11.68;60.72
53316;BME280;39204;53.896;11.432;2023-04-26T10:50:06;101291.50;;;11.81;62.28
53316;BME280;39204;53.896;11.432;2023-04-26T10:51:37;101294.84;;;11.59;61.45
53316;BME280;39204;53.896;11.432;2023-04-26T10:53:07;101297.94;;;11.80;61.36
53316;BME280;39204;53.896;11.432;2023-04-26T10:54:54;101300.81;;;12.02;61.79
53316;BME280;39204;53.896;11.432;2023-04-26T10:57:55;101295.69;;;12.68;60.61
53316;BME280;39204;53.896;11.432;2023-04-26T10:59:26;101289.47;;;13.40;58.85
53316;BME280;39204;53.896;11.432;2023-04-26T11:01:23;101294.06;;;13.39;56.30
53316;BME280;39204;53.896;11.432;2023-04-26T11:02:54;101294.56;;;13.19;53.76
53316;BME280;39204;53.896;11.432;2023-04-26T11:04:51;101297.59;;;12.50;54.78
53316;BME280;39204;53.896;11.432;2023-04-26T11:06:22;101293.41;;;12.93;54.53
53316;BME280;39204;53.896;11.432;2023-04-26T11:08:44;101290.09;;;12.35;55.10
53316;BME280;39204;53.896;11.432;2023-04-26T11:09:59;101298.50;;;13.50;54.01
53316;BME280;39204;53.896;11.432;2023-04-26T11:11:29;101281.56;;;13.77;53.70
53316;BME280;39204;53.896;11.432;2023-04-26T11:13:02;101286.09;;;13.11;54.30
53316;BME280;39204;53.896;11.432;2023-04-26T11:14:33;101303.53;;;12.69;53.86
53316;BME280;39204;53.896;11.432;2023-04-26T11:16:06;101291.97;;;12.35;54.81
53316;BME280;39204;53.896;11.432;2023-04-26T11:17:37;101300.84;;;12.52;53.77
53316;BME280;39204;53.896;11.432;2023-04-26T11:19:08;101292.38;;;12.60;54.07
53316;BME280;39204;53.896;11.432;2023-04-26T11:20:38;101286.53;;;12.47;54.37
53316;BME280;39204;53.896;11.432;2023-04-26T11:22:09;101293.59;;;13.25;55.72
53316;BME280;39204;53.896;11.432;2023-04-26T11:23:40;101290.31;;;13.67;52.73
53316;BME280;39204;53.896;11.432;2023-04-26T11:25:11;101285.81;;;14.00;51.33
53316;BME280;39204;53.896;11.432;2023-04-26T11:26:50;101293.00;;;12.84;51.59
53316;BME280;39204;53.896;11.432;2023-04-26T11:28:20;101307.03;;;12.87;53.32
53316;BME280;39204;53.896;11.432;2023-04-26T11:29:53;101301.16;;;12.90;54.01
53316;BME280;39204;53.896;11.432;2023-04-26T11:31:23;101293.66;;;12.75;53.91
53316;BME280;39204;53.896;11.432;2023-04-26T11:32:54;101297.28;;;12.47;54.89
53316;BME280;39204;53.896;11.432;2023-04-26T11:34:31;101290.09;;;12.35;55.72
53316;BME280;39204;53.896;11.432;2023-04-26T11:36:02;101298.47;;;12.22;55.13
53316;BME280;39204;53.896;11.432;2023-04-26T11:37:33;101302.22;;;12.38;55.26
53316;BME280;39204;53.896;11.432;2023-04-26T11:39:03;101289.44;;;12.62;56.30
53316;BME280;39204;53.896;11.432;2023-04-26T11:40:34;101293.53;;;12.48;55.79
53316;BME280;39204;53.896;11.432;2023-04-26T11:42:07;101295.00;;;11.93;58.02
53316;BME280;39204;53.896;11.432;2023-04-26T11:43:38;101297.94;;;11.80;61.53
53316;BME280;39204;53.896;11.432;2023-04-26T11:45:09;101299.88;;;11.96;63.14
53316;BME280;39204;53.896;11.432;2023-04-26T11:46:40;101290.50;;;11.70;60.12
53316;BME280;39204;53.896;11.432;2023-04-26T11:48:11;101288.63;;;11.71;62.75
53316;BME280;39204;53.896;11.432;2023-04-26T11:49:41;101292.88;;;12.57;63.99
53316;BME280;39204;53.896;11.432;2023-04-26T11:51:12;101279.38;;;13.30;62.34
53316;BME280;39204;53.896;11.432;2023-04-26T11:52:42;101287.84;;;13.39;62.24
53316;BME280;39204;53.896;11.432;2023-04-26T11:54:29;101301.09;;;13.23;63.13
53316;BME280;39204;53.896;11.432;2023-04-26T11:56:00;101302.63;;;13.19;62.30
53316;BME280;39204;53.896;11.432;2023-04-26T11:57:30;101298.91;;;13.20;61.10
53316;BME280;39204;53.896;11.432;2023-04-26T11:59:03;101299.72;;;12.65;58.64
53316;BME280;39204;53.896;11.432;2023-04-26T12:00:34;101289.41;;;13.35;57.47
53316;BME280;39204;53.896;11.432;2023-04-26T12:02:05;101301.19;;;13.50;59.66
53316;BME280;39204;53.896;11.432;2023-04-26T12:03:36;101307.75;;;12.82;59.46
53316;BME280;39204;53.896;11.432;2023-04-26T12:05:07;101310.50;;;12.03;62.09
53316;BME280;39204;53.896;11.432;2023-04-26T12:06:42;101312.25;;;11.97;65.74
53316;BME280;39204;53.896;11.432;2023-04-26T12:08:12;101311.94;;;11.53;65.62
53316;BME280;39204;53.896;11.432;2023-04-26T12:09:43;101313.88;;;12.27;66.71
53316;BME280;39204;53.896;11.432;2023-04-26T12:11:15;101305.00;;;12.43;67.74
53316;BME280;39204;53.896;11.432;2023-04-26T12:12:49;101310.59;;;11.27;75.78
53316;BME280;39204;53.896;11.432;2023-04-26T12:14:20;101313.41;;;10.85;82.17
53316;BME280;39204;53.896;11.432;2023-04-26T12:15:50;101317.97;;;10.85;84.87
53316;BME280;39204;53.896;11.432;2023-04-26T12:17:21;101325.91;;;10.26;87.85
53316;BME280;39204;53.896;11.432;2023-04-26T12:18:52;101322.06;;;10.04;89.87
53316;BME280;39204;53.896;11.432;2023-04-26T12:20:33;101320.91;;;10.41;90.61
53316;BME280;39204;53.896;11.432;2023-04-26T12:22:05;101322.50;;;11.31;87.32
53316;BME280;39204;53.896;11.432;2023-04-26T12:23:37;101322.22;;;11.45;83.64
53316;BME280;39204;53.896;11.432;2023-04-26T12:25:08;101327.69;;;12.02;82.67
53316;BME280;39204;53.896;11.432;2023-04-26T12:26:43;101327.31;;;12.27;80.54
53316;BME280;39204;53.896;11.432;2023-04-26T12:28:14;101320.97;;;12.67;76.60
53316;BME280;39204;53.896;11.432;2023-04-26T12:29:44;101324.59;;;11.70;73.67
53316;BME280;39204;53.896;11.432;2023-04-26T12:31:14;101320.34;;;11.45;73.99
53316;BME280;39204;53.896;11.432;2023-04-26T12:32:45;101331.97;;;11.62;75.08
53316;BME280;39204;53.896;11.432;2023-04-26T12:34:15;101333.19;;;11.55;74.67
53316;BME280;39204;53.896;11.432;2023-04-26T12:35:45;101321.38;;;11.56;73.35
53316;BME280;39204;53.896;11.432;2023-04-26T12:37:16;101320.84;;;11.30;73.02
53316;BME280;39204;53.896;11.432;2023-04-26T12:38:46;101331.81;;;10.94;68.15
53316;BME280;39204;53.896;11.432;2023-04-26T12:40:18;101327.16;;;11.36;67.85
53316;BME280;39204;53.896;11.432;2023-04-26T12:41:48;101334.53;;;12.09;68.82
53316;BME280;39204;53.896;11.432;2023-04-26T12:43:19;101340.09;;;11.91;67.47
53316;BME280;39204;53.896;11.432;2023-04-26T12:44:53;101330.41;;;11.38;68.60
53316;BME280;39204;53.896;11.432;2023-04-26T12:46:23;101337.47;;;11.56;71.30
53316;BME280;39204;53.896;11.432;2023-04-26T12:47:55;101335.13;;;11.59;71.59
53316;BME280;39204;53.896;11.432;2023-04-26T12:49:25;101335.94;;;11.83;75.15
53316;BME280;39204;53.896;11.432;2023-04-26T12:50:55;101339.47;;;11.49;75.82
53316;BME280;39204;53.896;11.432;2023-04-26T12:52:26;101338.53;;;12.07;76.72
53316;BME280;39204;53.896;11.432;2023-04-26T12:53:57;101345.31;;;11.57;76.49
53316;BME280;39204;53.896;11.432;2023-04-26T12:55:27;101342.66;;;11.22;77.68
53316;BME280;39204;53.896;11.432;2023-04-26T12:56:57;101339.06;;;11.28;78.64
53316;BME280;39204;53.896;11.432;2023-04-26T12:58:28;101343.25;;;11.36;77.62
53316;BME280;39204;53.896;11.432;2023-04-26T12:59:58;101344.41;;;11.05;78.33
53316;BME280;39204;53.896;11.432;2023-04-26T13:01:28;101348.00;;;11.46;78.16
53316;BME280;39204;53.896;11.432;2023-04-26T13:02:58;101339.06;;;11.17;78.55
53316;BME280;39204;53.896;11.432;2023-04-26T13:04:29;101350.16;;;10.85;78.50
53316;BME280;39204;53.896;11.432;2023-04-26T13:05:59;101352.81;;;10.61;80.67
53316;BME280;39204;53.896;11.432;2023-04-26T13:07:31;101351.69;;;10.27;81.07
53316;BME280;39204;53.896;11.432;2023-04-26T13:09:02;101359.81;;;10.74;80.94
53316;BME280;39204;53.896;11.432;2023-04-26T13:10:32;101348.97;;;10.93;80.89
53316;BME280;39204;53.896;11.432;2023-04-26T13:12:03;101351.19;;;11.07;77.29
53316;BME280;39204;53.896;11.432;2023-04-26T13:13:33;101356.31;;;10.85;72.72
53316;BME280;39204;53.896;11.432;2023-04-26T13:15:05;101348.25;;;10.50;69.57
53316;BME280;39204;53.896;11.432;2023-04-26T13:16:36;101357.03;;;10.81;71.32
53316;BME280;39204;53.896;11.432;2023-04-26T13:18:11;101360.50;;;10.70;71.64
53316;BME280;39204;53.896;11.432;2023-04-26T13:19:41;101363.72;;;10.48;71.58